Anacoco, Louisiana
Current Conditions -  °F | °C
As of 11:56 AM on Sunday 21 Dec 2014 (Local Time) from KAQV Reporting Station
Clear Clear  
Wind Chill: 59°   Ceiling: Unl
Heat Index: 59°   Visibility: 10mi
Dew Point: 46°   Wind: 0mph
Humidity: 62%   Direction: NA
Pressure: 30.06"   Gusts: NA
Location:  31.25°N, 93.34°W
Report Text: KAQV 211756Z AUTO 00000KT 10SM CLR 15/08 A3006 RMK AO2 SLP179 T01500078 10150 20011 58023 $
Loading
Personal Weather Stations






























Interactive Weather Map New forecast layout! Learn more

10-Day Weather Forecast

Advertisements
Track Severe Weather on mobile